sensor_id;sensor_type;location;lat;lon;timestamp;pressure;altitude;pressure_sealevel;temperature;humidity
35910;BME280;22004;49.120;-0.200;2023-03-13T00:00:54;100263.22;;;12.52;83.05
35910;BME280;22004;49.120;-0.200;2023-03-13T00:03:20;100269.88;;;12.50;83.17
35910;BME280;22004;49.120;-0.200;2023-03-13T00:05:45;100275.03;;;12.51;82.98
35910;BME280;22004;49.120;-0.200;2023-03-13T00:08:11;100274.00;;;12.46;82.93
35910;BME280;22004;49.120;-0.200;2023-03-13T00:10:37;100274.81;;;12.53;82.60
35910;BME280;22004;49.120;-0.200;2023-03-13T00:13:03;100276.91;;;12.51;83.08
35910;BME280;22004;49.120;-0.200;2023-03-13T00:15:29;100287.69;;;12.51;83.19
35910;BME280;22004;49.120;-0.200;2023-03-13T00:17:54;100308.41;;;12.57;82.15
35910;BME280;22004;49.120;-0.200;2023-03-13T00:20:19;100300.34;;;12.63;82.07
35910;BME280;22004;49.120;-0.200;2023-03-13T00:22:45;100285.63;;;12.59;82.39
35910;BME280;22004;49.120;-0.200;2023-03-13T00:25:10;100286.47;;;12.60;82.29
35910;BME280;22004;49.120;-0.200;2023-03-13T00:27:35;100274.03;;;12.65;81.94
35910;BME280;22004;49.120;-0.200;2023-03-13T00:30:01;100252.50;;;12.65;81.49
35910;BME280;22004;49.120;-0.200;2023-03-13T00:32:26;100272.16;;;12.66;80.95
35910;BME280;22004;49.120;-0.200;2023-03-13T00:34:51;100261.41;;;12.66;81.00
35910;BME280;22004;49.120;-0.200;2023-03-13T00:37:17;100242.34;;;12.74;81.50
35910;BME280;22004;49.120;-0.200;2023-03-13T00:39:42;100238.41;;;12.77;81.21
35910;BME280;22004;49.120;-0.200;2023-03-13T00:42:09;100233.22;;;12.75;80.85
35910;BME280;22004;49.120;-0.200;2023-03-13T00:44:34;100240.03;;;12.78;80.32
35910;BME280;22004;49.120;-0.200;2023-03-13T00:47:00;100254.56;;;12.77;80.37
35910;BME280;22004;49.120;-0.200;2023-03-13T00:49:25;100229.28;;;12.84;79.67
35910;BME280;22004;49.120;-0.200;2023-03-13T00:51:50;100218.69;;;12.83;79.65
35910;BME280;22004;49.120;-0.200;2023-03-13T00:54:16;100225.78;;;12.84;79.24
35910;BME280;22004;49.120;-0.200;2023-03-13T00:56:41;100241.72;;;12.85;79.69
35910;BME280;22004;49.120;-0.200;2023-03-13T00:59:06;100248.75;;;12.86;78.71
35910;BME280;22004;49.120;-0.200;2023-03-13T01:01:35;100240.88;;;12.91;78.86
35910;BME280;22004;49.120;-0.200;2023-03-13T01:04:06;100245.44;;;12.91;78.17
35910;BME280;22004;49.120;-0.200;2023-03-13T01:06:34;100244.41;;;12.92;78.62
35910;BME280;22004;49.120;-0.200;2023-03-13T01:09:01;100250.00;;;12.90;78.38
35910;BME280;22004;49.120;-0.200;2023-03-13T01:11:29;100236.75;;;12.96;77.84
35910;BME280;22004;49.120;-0.200;2023-03-13T01:13:57;100248.56;;;12.94;77.96
35910;BME280;22004;49.120;-0.200;2023-03-13T01:16:24;100242.75;;;12.91;77.56
35910;BME280;22004;49.120;-0.200;2023-03-13T01:18:52;100245.66;;;12.96;76.91
35910;BME280;22004;49.120;-0.200;2023-03-13T01:21:19;100235.91;;;12.95;77.21
35910;BME280;22004;49.120;-0.200;2023-03-13T01:23:46;100225.13;;;13.02;76.82
35910;BME280;22004;49.120;-0.200;2023-03-13T01:26:11;100205.22;;;12.96;nan
35910;BME280;22004;49.120;-0.200;2023-03-13T01:28:37;100218.91;;;12.94;76.61
35910;BME280;22004;49.120;-0.200;2023-03-13T01:31:14;100230.53;;;12.95;76.71
35910;BME280;22004;49.120;-0.200;2023-03-13T01:33:40;100201.09;;;13.00;76.39
35910;BME280;22004;49.120;-0.200;2023-03-13T01:36:06;100186.16;;;12.98;76.30
35910;BME280;22004;49.120;-0.200;2023-03-13T01:38:32;100158.59;;;12.96;76.30
35910;BME280;22004;49.120;-0.200;2023-03-13T01:40:58;100144.91;;;13.04;75.33
35910;BME280;22004;49.120;-0.200;2023-03-13T01:43:29;100150.31;;;12.97;75.99
35910;BME280;22004;49.120;-0.200;2023-03-13T01:51:20;100188.84;;;13.04;76.19
35910;BME280;22004;49.120;-0.200;2023-03-13T01:53:50;100190.50;;;13.05;76.06
35910;BME280;22004;49.120;-0.200;2023-03-13T01:56:22;100176.22;;;13.05;76.78
35910;BME280;22004;49.120;-0.200;2023-03-13T01:58:50;100168.72;;;13.13;76.26
35910;BME280;22004;49.120;-0.200;2023-03-13T02:01:17;100164.16;;;13.14;75.73
35910;BME280;22004;49.120;-0.200;2023-03-13T02:03:45;100168.34;;;13.03;76.17
35910;BME280;22004;49.120;-0.200;2023-03-13T02:06:12;100148.81;;;13.28;74.60
35910;BME280;22004;49.120;-0.200;2023-03-13T02:08:59;100144.06;;;13.10;75.03
35910;BME280;22004;49.120;-0.200;2023-03-13T02:11:42;100139.06;;;13.20;74.90
35910;BME280;22004;49.120;-0.200;2023-03-13T02:14:10;100131.41;;;13.24;74.17
35910;BME280;22004;49.120;-0.200;2023-03-13T02:16:36;100130.38;;;13.18;74.56
35910;BME280;22004;49.120;-0.200;2023-03-13T02:19:14;100125.59;;;13.07;75.14
35910;BME280;22004;49.120;-0.200;2023-03-13T02:21:47;100128.53;;;13.05;74.77
35910;BME280;22004;49.120;-0.200;2023-03-13T02:24:31;100117.78;;;12.99;74.88
35910;BME280;22004;49.120;-0.200;2023-03-13T02:26:59;100121.91;;;13.01;74.11
35910;BME280;22004;49.120;-0.200;2023-03-13T02:29:25;100114.44;;;13.03;74.39
35910;BME280;22004;49.120;-0.200;2023-03-13T02:31:51;100110.06;;;13.09;73.74
35910;BME280;22004;49.120;-0.200;2023-03-13T02:34:20;100115.47;;;13.09;74.11
35910;BME280;22004;49.120;-0.200;2023-03-13T02:36:48;100116.09;;;12.98;75.26
35910;BME280;22004;49.120;-0.200;2023-03-13T02:39:16;100117.91;;;13.17;73.94
35910;BME280;22004;49.120;-0.200;2023-03-13T02:41:43;100111.91;;;13.15;74.09
35910;BME280;22004;49.120;-0.200;2023-03-13T02:44:10;100092.84;;;13.10;74.05
35910;BME280;22004;49.120;-0.200;2023-03-13T02:46:46;100115.84;;;13.19;74.40
35910;BME280;22004;49.120;-0.200;2023-03-13T02:51:45;100112.72;;;13.22;74.16
35910;BME280;22004;49.120;-0.200;2023-03-13T02:54:17;100121.22;;;13.19;73.93
35910;BME280;22004;49.120;-0.200;2023-03-13T02:56:46;100110.03;;;13.22;74.25
35910;BME280;22004;49.120;-0.200;2023-03-13T02:59:13;100105.06;;;13.26;73.75
35910;BME280;22004;49.120;-0.200;2023-03-13T03:01:38;100103.81;;;13.22;74.16
35910;BME280;22004;49.120;-0.200;2023-03-13T03:04:04;100076.88;;;13.15;74.59
35910;BME280;22004;49.120;-0.200;2023-03-13T03:06:29;100066.50;;;13.18;74.35
35910;BME280;22004;49.120;-0.200;2023-03-13T03:08:54;100067.78;;;13.09;74.54
35910;BME280;22004;49.120;-0.200;2023-03-13T03:11:20;100076.47;;;13.11;74.51
35910;BME280;22004;49.120;-0.200;2023-03-13T03:13:45;100083.50;;;13.12;74.70
35910;BME280;22004;49.120;-0.200;2023-03-13T03:16:12;100079.75;;;13.20;74.36
35910;BME280;22004;49.120;-0.200;2023-03-13T03:18:40;100049.69;;;13.16;74.70
35910;BME280;22004;49.120;-0.200;2023-03-13T03:21:06;100054.25;;;13.23;74.27
35910;BME280;22004;49.120;-0.200;2023-03-13T03:23:32;100064.63;;;13.12;74.38
35910;BME280;22004;49.120;-0.200;2023-03-13T03:25:58;100052.81;;;13.20;74.65
35910;BME280;22004;49.120;-0.200;2023-03-13T03:28:24;100056.97;;;13.16;74.46
35910;BME280;22004;49.120;-0.200;2023-03-13T03:30:49;100042.22;;;13.25;74.51
35910;BME280;22004;49.120;-0.200;2023-03-13T03:33:17;100058.00;;;13.28;74.27
35910;BME280;22004;49.120;-0.200;2023-03-13T03:35:42;100050.09;;;13.20;74.61
35910;BME280;22004;49.120;-0.200;2023-03-13T03:38:08;100042.66;;;13.22;75.07
35910;BME280;22004;49.120;-0.200;2023-03-13T03:40:33;100047.22;;;13.22;74.97
35910;BME280;22004;49.120;-0.200;2023-03-13T03:42:58;100054.25;;;13.29;75.38
35910;BME280;22004;49.120;-0.200;2023-03-13T03:45:24;100036.84;;;13.25;75.86
35910;BME280;22004;49.120;-0.200;2023-03-13T03:47:49;100054.06;;;13.24;76.11
35910;BME280;22004;49.120;-0.200;2023-03-13T03:50:15;100045.94;;;13.31;76.60
35910;BME280;22004;49.120;-0.200;2023-03-13T03:52:40;100046.41;;;13.14;77.45
35910;BME280;22004;49.120;-0.200;2023-03-13T03:55:06;100042.69;;;13.09;77.58
35910;BME280;22004;49.120;-0.200;2023-03-13T03:57:31;100028.88;;;12.99;78.57
35910;BME280;22004;49.120;-0.200;2023-03-13T03:59:56;100021.88;;;12.84;79.29
35910;BME280;22004;49.120;-0.200;2023-03-13T04:02:22;100013.59;;;12.79;79.53
35910;BME280;22004;49.120;-0.200;2023-03-13T04:04:47;100014.63;;;12.78;80.01
35910;BME280;22004;49.120;-0.200;2023-03-13T04:07:12;100009.25;;;12.72;80.11
35910;BME280;22004;49.120;-0.200;2023-03-13T04:09:38;100001.81;;;12.74;80.58
35910;BME280;22004;49.120;-0.200;2023-03-13T04:12:03;99997.44;;;12.73;79.73
35910;BME280;22004;49.120;-0.200;2023-03-13T04:14:29;100008.03;;;12.74;80.19
35910;BME280;22004;49.120;-0.200;2023-03-13T04:16:54;100027.66;;;12.81;80.93
35910;BME280;22004;49.120;-0.200;2023-03-13T04:19:19;100023.75;;;12.77;80.19
35910;BME280;22004;49.120;-0.200;2023-03-13T04:21:45;100032.25;;;12.74;82.11
35910;BME280;22004;49.120;-0.200;2023-03-13T04:24:10;100024.41;;;12.66;82.50
35910;BME280;22004;49.120;-0.200;2023-03-13T04:26:36;100031.06;;;12.63;82.52
35910;BME280;22004;49.120;-0.200;2023-03-13T04:29:01;100026.50;;;12.64;82.09
35910;BME280;22004;49.120;-0.200;2023-03-13T04:31:26;100030.00;;;12.64;82.47
35910;BME280;22004;49.120;-0.200;2023-03-13T04:33:52;100038.69;;;12.66;82.15
35910;BME280;22004;49.120;-0.200;2023-03-13T04:36:17;100036.41;;;12.70;82.22
35910;BME280;22004;49.120;-0.200;2023-03-13T04:38:42;100030.19;;;12.70;81.91
35910;BME280;22004;49.120;-0.200;2023-03-13T04:41:08;100026.47;;;12.71;82.12
35910;BME280;22004;49.120;-0.200;2023-03-13T04:43:33;100010.94;;;12.66;82.04
35910;BME280;22004;49.120;-0.200;2023-03-13T04:45:58;100010.53;;;12.62;82.87
35910;BME280;22004;49.120;-0.200;2023-03-13T04:48:24;100005.97;;;12.63;82.42
35910;BME280;22004;49.120;-0.200;2023-03-13T04:50:50;100002.88;;;12.59;82.04
35910;BME280;22004;49.120;-0.200;2023-03-13T04:53:15;100006.81;;;12.57;83.55
35910;BME280;22004;49.120;-0.200;2023-03-13T04:55:41;100002.25;;;12.57;83.36
35910;BME280;22004;49.120;-0.200;2023-03-13T04:58:06;100006.81;;;12.57;82.97
35910;BME280;22004;49.120;-0.200;2023-03-13T05:00:31;100000.38;;;12.58;83.30
35910;BME280;22004;49.120;-0.200;2023-03-13T05:02:57;100005.16;;;12.56;82.84
35910;BME280;22004;49.120;-0.200;2023-03-13T05:05:22;100001.66;;;12.55;81.86
35910;BME280;22004;49.120;-0.200;2023-03-13T05:07:47;99997.31;;;12.54;82.83
35910;BME280;22004;49.120;-0.200;2023-03-13T05:10:13;100003.06;;;12.58;83.59
35910;BME280;22004;49.120;-0.200;2023-03-13T05:12:38;100000.41;;;12.51;83.92
35910;BME280;22004;49.120;-0.200;2023-03-13T05:15:04;99993.78;;;12.54;83.34
35910;BME280;22004;49.120;-0.200;2023-03-13T05:17:29;100003.72;;;12.60;83.75
35910;BME280;22004;49.120;-0.200;2023-03-13T05:19:54;99986.94;;;12.51;83.70
35910;BME280;22004;49.120;-0.200;2023-03-13T05:22:20;99989.84;;;12.56;83.26
35910;BME280;22004;49.120;-0.200;2023-03-13T05:24:45;99982.63;;;12.50;83.67
35910;BME280;22004;49.120;-0.200;2023-03-13T05:27:10;99983.84;;;12.48;83.96
35910;BME280;22004;49.120;-0.200;2023-03-13T05:29:36;99986.53;;;12.48;84.08
35910;BME280;22004;49.120;-0.200;2023-03-13T05:32:01;99973.31;;;12.46;83.83
35910;BME280;22004;49.120;-0.200;2023-03-13T05:34:27;99975.78;;;12.48;84.00
35910;BME280;22004;49.120;-0.200;2023-03-13T05:36:52;99980.56;;;12.46;84.70
35910;BME280;22004;49.120;-0.200;2023-03-13T05:39:17;99979.75;;;12.38;85.08
35910;BME280;22004;49.120;-0.200;2023-03-13T05:41:43;99962.97;;;12.36;85.39
35910;BME280;22004;49.120;-0.200;2023-03-13T05:44:08;99965.88;;;12.35;85.77
35910;BME280;22004;49.120;-0.200;2023-03-13T05:46:33;99963.41;;;12.33;85.82
35910;BME280;22004;49.120;-0.200;2023-03-13T05:48:59;99964.25;;;12.34;85.50
35910;BME280;22004;49.120;-0.200;2023-03-13T05:51:24;99957.81;;;12.35;85.74
35910;BME280;22004;49.120;-0.200;2023-03-13T05:53:49;99946.00;;;12.36;85.51
35910;BME280;22004;49.120;-0.200;2023-03-13T05:56:15;99957.59;;;12.36;85.33
35910;BME280;22004;49.120;-0.200;2023-03-13T05:58:40;99953.47;;;12.34;85.80
35910;BME280;22004;49.120;-0.200;2023-03-13T06:01:07;99940.63;;;12.36;85.66
35910;BME280;22004;49.120;-0.200;2023-03-13T06:03:33;99925.94;;;12.25;85.71
35910;BME280;22004;49.120;-0.200;2023-03-13T06:05:58;99937.34;;;12.21;84.81
35910;BME280;22004;49.120;-0.200;2023-03-13T06:08:24;99926.16;;;12.30;83.37
35910;BME280;22004;49.120;-0.200;2023-03-13T06:10:49;99938.59;;;12.25;83.45
35910;BME280;22004;49.120;-0.200;2023-03-13T06:13:14;99935.03;;;12.31;82.68
35910;BME280;22004;49.120;-0.200;2023-03-13T06:15:40;99914.28;;;12.45;80.98
35910;BME280;22004;49.120;-0.200;2023-03-13T06:18:05;99920.09;;;12.41;80.94
35910;BME280;22004;49.120;-0.200;2023-03-13T06:20:30;99920.09;;;12.41;80.57
35910;BME280;22004;49.120;-0.200;2023-03-13T06:22:56;99912.84;;;12.42;80.81
35910;BME280;22004;49.120;-0.200;2023-03-13T06:25:21;99907.03;;;12.45;79.92
35910;BME280;22004;49.120;-0.200;2023-03-13T06:27:46;99901.66;;;12.45;79.88
35910;BME280;22004;49.120;-0.200;2023-03-13T06:30:12;99894.63;;;12.44;79.88
35910;BME280;22004;49.120;-0.200;2023-03-13T06:32:37;99904.16;;;12.40;79.79
35910;BME280;22004;49.120;-0.200;2023-03-13T06:35:03;99899.56;;;12.47;79.56
35910;BME280;22004;49.120;-0.200;2023-03-13T06:37:29;99891.69;;;12.52;79.16
35910;BME280;22004;49.120;-0.200;2023-03-13T06:39:54;99896.00;;;12.60;78.92
35910;BME280;22004;49.120;-0.200;2023-03-13T06:42:19;99884.38;;;12.66;78.72
35910;BME280;22004;49.120;-0.200;2023-03-13T06:44:45;99883.59;;;12.59;79.13
35910;BME280;22004;49.120;-0.200;2023-03-13T06:47:10;99896.69;;;12.49;79.58
35910;BME280;22004;49.120;-0.200;2023-03-13T06:49:35;99883.38;;;12.60;78.27
35910;BME280;22004;49.120;-0.200;2023-03-13T06:52:01;99870.50;;;12.62;78.05
35910;BME280;22004;49.120;-0.200;2023-03-13T06:54:26;99865.53;;;12.66;77.23
35910;BME280;22004;49.120;-0.200;2023-03-13T06:56:52;99853.69;;;12.67;77.27
35910;BME280;22004;49.120;-0.200;2023-03-13T06:59:17;99855.38;;;12.61;77.24
35910;BME280;22004;49.120;-0.200;2023-03-13T07:01:42;99838.00;;;12.57;77.40
35910;BME280;22004;49.120;-0.200;2023-03-13T07:04:11;99846.72;;;12.53;76.92
35910;BME280;22004;49.120;-0.200;2023-03-13T07:06:36;99839.47;;;12.60;76.79
35910;BME280;22004;49.120;-0.200;2023-03-13T07:09:02;99838.00;;;12.64;76.35
35910;BME280;22004;49.120;-0.200;2023-03-13T07:11:29;99830.94;;;12.63;76.42
35910;BME280;22004;49.120;-0.200;2023-03-13T07:13:54;99829.28;;;12.62;76.55
35910;BME280;22004;49.120;-0.200;2023-03-13T07:16:20;99811.72;;;12.59;76.08
35910;BME280;22004;49.120;-0.200;2023-03-13T07:18:46;99820.97;;;12.70;75.56
35910;BME280;22004;49.120;-0.200;2023-03-13T07:21:12;99817.16;;;12.78;74.21
35910;BME280;22004;49.120;-0.200;2023-03-13T07:23:38;99815.97;;;12.74;74.73
35910;BME280;22004;49.120;-0.200;2023-03-13T07:26:05;99818.78;;;12.85;74.43
35910;BME280;22004;49.120;-0.200;2023-03-13T07:28:32;99809.66;;;12.86;73.92
35910;BME280;22004;49.120;-0.200;2023-03-13T07:31:26;99810.47;;;12.87;74.46
35910;BME280;22004;49.120;-0.200;2023-03-13T07:33:54;99808.59;;;12.87;74.04
35910;BME280;22004;49.120;-0.200;2023-03-13T07:36:21;99811.94;;;12.89;74.06
35910;BME280;22004;49.120;-0.200;2023-03-13T07:38:51;99804.84;;;12.95;73.91
35910;BME280;22004;49.120;-0.200;2023-03-13T07:41:17;99807.94;;;12.99;73.83
35910;BME280;22004;49.120;-0.200;2023-03-13T07:43:43;99818.88;;;13.04;73.49
35910;BME280;22004;49.120;-0.200;2023-03-13T07:46:12;99810.97;;;13.09;73.75
35910;BME280;22004;49.120;-0.200;2023-03-13T07:48:39;99805.44;;;15.46;66.18
35910;BME280;22004;49.120;-0.200;2023-03-13T07:51:13;99817.53;;;16.99;60.65
35910;BME280;22004;49.120;-0.200;2023-03-13T07:53:39;99819.75;;;17.53;58.14
35910;BME280;22004;49.120;-0.200;2023-03-13T07:56:07;99820.81;;;17.86;57.62
35910;BME280;22004;49.120;-0.200;2023-03-13T07:58:35;99822.72;;;19.05;54.62
35910;BME280;22004;49.120;-0.200;2023-03-13T08:01:18;99819.81;;;18.63;54.96
35910;BME280;22004;49.120;-0.200;2023-03-13T08:03:44;99808.00;;;18.74;54.72
35910;BME280;22004;49.120;-0.200;2023-03-13T08:06:12;99824.16;;;18.85;54.25
35910;BME280;22004;49.120;-0.200;2023-03-13T08:08:38;99804.19;;;17.82;56.66
35910;BME280;22004;49.120;-0.200;2023-03-13T08:11:09;99811.13;;;17.95;56.22
35910;BME280;22004;49.120;-0.200;2023-03-13T08:13:36;99806.38;;;17.46;57.60
35910;BME280;22004;49.120;-0.200;2023-03-13T08:16:04;99801.19;;;16.94;59.12
35910;BME280;22004;49.120;-0.200;2023-03-13T08:18:29;99794.97;;;16.37;61.13
35910;BME280;22004;49.120;-0.200;2023-03-13T08:21:03;99795.22;;;15.83;63.29
35910;BME280;22004;49.120;-0.200;2023-03-13T08:23:29;99824.03;;;14.47;67.07
35910;BME280;22004;49.120;-0.200;2023-03-13T08:25:55;99777.13;;;15.72;63.88
35910;BME280;22004;49.120;-0.200;2023-03-13T08:28:20;99815.03;;;15.72;64.08
35910;BME280;22004;49.120;-0.200;2023-03-13T08:30:45;99793.94;;;15.39;64.22
35910;BME280;22004;49.120;-0.200;2023-03-13T08:33:11;99781.81;;;15.88;63.41
35910;BME280;22004;49.120;-0.200;2023-03-13T08:35:36;99798.75;;;15.84;62.38
35910;BME280;22004;49.120;-0.200;2023-03-13T08:38:01;99779.78;;;15.95;62.83
35910;BME280;22004;49.120;-0.200;2023-03-13T08:40:27;99763.22;;;15.92;61.55
35910;BME280;22004;49.120;-0.200;2023-03-13T08:42:53;99757.28;;;16.07;62.01
35910;BME280;22004;49.120;-0.200;2023-03-13T08:45:18;99768.19;;;16.40;60.94
35910;BME280;22004;49.120;-0.200;2023-03-13T08:47:44;99752.97;;;15.94;61.75
35910;BME280;22004;49.120;-0.200;2023-03-13T08:50:09;99745.19;;;15.97;62.01
35910;BME280;22004;49.120;-0.200;2023-03-13T08:52:35;99756.78;;;16.10;61.71
35910;BME280;22004;49.120;-0.200;2023-03-13T08:55:00;99756.41;;;15.54;63.68
35910;BME280;22004;49.120;-0.200;2023-03-13T08:57:25;99749.53;;;15.98;61.84
35910;BME280;22004;49.120;-0.200;2023-03-13T08:59:51;99753.44;;;16.31;61.29
35910;BME280;22004;49.120;-0.200;2023-03-13T09:02:16;99756.16;;;16.19;61.60
35910;BME280;22004;49.120;-0.200;2023-03-13T09:04:45;99740.94;;;16.30;60.55
35910;BME280;22004;49.120;-0.200;2023-03-13T09:07:11;99741.78;;;15.90;60.25
35910;BME280;22004;49.120;-0.200;2023-03-13T09:09:36;99745.25;;;16.14;60.66
35910;BME280;22004;49.120;-0.200;2023-03-13T09:12:02;99743.97;;;15.65;61.29
35910;BME280;22004;49.120;-0.200;2023-03-13T09:14:28;99731.75;;;16.02;60.75
35910;BME280;22004;49.120;-0.200;2023-03-13T09:16:53;99735.47;;;15.73;61.05
35910;BME280;22004;49.120;-0.200;2023-03-13T09:19:20;99737.78;;;15.93;61.37
35910;BME280;22004;49.120;-0.200;2023-03-13T09:21:45;99748.50;;;15.88;60.14
35910;BME280;22004;49.120;-0.200;2023-03-13T09:24:13;99757.19;;;15.90;60.00
35910;BME280;22004;49.120;-0.200;2023-03-13T09:26:38;99742.38;;;15.92;60.30
35910;BME280;22004;49.120;-0.200;2023-03-13T09:29:04;99734.41;;;15.62;61.39
35910;BME280;22004;49.120;-0.200;2023-03-13T09:31:30;99737.47;;;15.66;61.70
35910;BME280;22004;49.120;-0.200;2023-03-13T09:33:56;99734.56;;;15.20;62.32
35910;BME280;22004;49.120;-0.200;2023-03-13T09:36:22;99732.09;;;15.31;61.05
35910;BME280;22004;49.120;-0.200;2023-03-13T09:38:49;99736.97;;;15.81;61.12
35910;BME280;22004;49.120;-0.200;2023-03-13T09:41:35;99727.25;;;15.44;60.66
35910;BME280;22004;49.120;-0.200;2023-03-13T09:47:02;99725.28;;;15.63;60.61
35910;BME280;22004;49.120;-0.200;2023-03-13T09:49:39;99715.56;;;15.79;59.36
35910;BME280;22004;49.120;-0.200;2023-03-13T09:52:24;99710.78;;;15.69;60.73
35910;BME280;22004;49.120;-0.200;2023-03-13T09:57:31;99720.53;;;15.59;57.71
35910;BME280;22004;49.120;-0.200;2023-03-13T10:00:02;99711.00;;;15.56;57.57
35910;BME280;22004;49.120;-0.200;2023-03-13T10:02:35;99710.44;;;15.66;59.09
35910;BME280;22004;49.120;-0.200;2023-03-13T10:05:14;99710.69;;;15.52;59.03
35910;BME280;22004;49.120;-0.200;2023-03-13T10:07:41;99696.59;;;15.39;60.68
35910;BME280;22004;49.120;-0.200;2023-03-13T10:10:13;99686.06;;;15.77;58.20
35910;BME280;22004;49.120;-0.200;2023-03-13T10:12:43;99675.91;;;15.85;59.62
35910;BME280;22004;49.120;-0.200;2023-03-13T10:18:25;99682.91;;;15.45;59.27
35910;BME280;22004;49.120;-0.200;2023-03-13T10:20:57;99685.28;;;15.94;58.94
35910;BME280;22004;49.120;-0.200;2023-03-13T10:23:28;99696.97;;;15.83;58.32
35910;BME280;22004;49.120;-0.200;2023-03-13T10:25:56;99684.63;;;15.87;56.92
35910;BME280;22004;49.120;-0.200;2023-03-13T10:28:22;99684.84;;;16.14;56.59
35910;BME280;22004;49.120;-0.200;2023-03-13T10:30:58;99694.03;;;16.13;56.04
35910;BME280;22004;49.120;-0.200;2023-03-13T10:33:27;99672.31;;;15.96;56.76
35910;BME280;22004;49.120;-0.200;2023-03-13T10:36:09;99674.41;;;15.77;55.47
35910;BME280;22004;49.120;-0.200;2023-03-13T10:38:46;99669.06;;;16.11;56.35
35910;BME280;22004;49.120;-0.200;2023-03-13T10:41:29;99681.44;;;16.35;57.64
35910;BME280;22004;49.120;-0.200;2023-03-13T10:44:04;99673.94;;;16.25;56.44
35910;BME280;22004;49.120;-0.200;2023-03-13T10:46:32;99670.06;;;16.05;57.43
35910;BME280;22004;49.120;-0.200;2023-03-13T10:49:03;99675.91;;;16.13;56.58
35910;BME280;22004;49.120;-0.200;2023-03-13T10:51:37;99666.59;;;15.92;56.88
35910;BME280;22004;49.120;-0.200;2023-03-13T10:54:33;99671.75;;;15.94;56.93
35910;BME280;22004;49.120;-0.200;2023-03-13T10:59:45;99659.66;;;15.85;58.19
35910;BME280;22004;49.120;-0.200;2023-03-13T11:02:22;99672.38;;;16.13;58.20
35910;BME280;22004;49.120;-0.200;2023-03-13T11:04:48;99661.91;;;16.33;56.72
35910;BME280;22004;49.120;-0.200;2023-03-13T11:07:35;99676.72;;;16.14;55.80
35910;BME280;22004;49.120;-0.200;2023-03-13T11:10:29;99680.69;;;16.40;55.96
35910;BME280;22004;49.120;-0.200;2023-03-13T11:12:57;99664.50;;;16.73;57.33
35910;BME280;22004;49.120;-0.200;2023-03-13T11:20:37;99659.84;;;16.23;55.88
35910;BME280;22004;49.120;-0.200;2023-03-13T11:31:40;99663.16;;;16.93;54.81
35910;BME280;22004;49.120;-0.200;2023-03-13T11:34:22;99643.84;;;16.89;54.25
35910;BME280;22004;49.120;-0.200;2023-03-13T11:37:02;99635.78;;;17.11;54.94
35910;BME280;22004;49.120;-0.200;2023-03-13T11:42:03;99654.59;;;16.34;53.53
35910;BME280;22004;49.120;-0.200;2023-03-13T11:55:51;99635.25;;;16.42;54.05
35910;BME280;22004;49.120;-0.200;2023-03-13T12:01:00;99625.91;;;15.87;54.88
35910;BME280;22004;49.120;-0.200;2023-03-13T12:06:02;99613.06;;;16.45;53.56
35910;BME280;22004;49.120;-0.200;2023-03-13T12:08:52;99612.75;;;16.58;53.66
35910;BME280;22004;49.120;-0.200;2023-03-13T12:11:27;99608.91;;;16.37;53.03
35910;BME280;22004;49.120;-0.200;2023-03-13T12:14:01;99613.88;;;16.45;52.48
35910;BME280;22004;49.120;-0.200;2023-03-13T12:19:35;99607.66;;;16.45;50.72
35910;BME280;22004;49.120;-0.200;2023-03-13T12:25:00;99582.13;;;16.58;50.28
35910;BME280;22004;49.120;-0.200;2023-03-13T12:27:30;99559.97;;;16.10;52.96
35910;BME280;22004;49.120;-0.200;2023-03-13T12:30:18;99564.16;;;16.51;51.34
35910;BME280;22004;49.120;-0.200;2023-03-13T12:35:28;99557.22;;;16.61;50.64
35910;BME280;22004;49.120;-0.200;2023-03-13T12:38:37;99528.84;;;16.46;48.25
35910;BME280;22004;49.120;-0.200;2023-03-13T12:41:30;99537.13;;;16.73;49.59
35910;BME280;22004;49.120;-0.200;2023-03-13T12:43:58;99529.75;;;16.52;49.65
35910;BME280;22004;49.120;-0.200;2023-03-13T13:00:34;99487.09;;;16.81;51.56
35910;BME280;22004;49.120;-0.200;2023-03-13T13:06:04;99469.72;;;17.04;52.02
35910;BME280;22004;49.120;-0.200;2023-03-13T13:11:34;99451.78;;;16.98;50.50
35910;BME280;22004;49.120;-0.200;2023-03-13T13:16:49;99453.56;;;16.70;49.67
35910;BME280;22004;49.120;-0.200;2023-03-13T13:24:53;99432.66;;;16.44;50.97
35910;BME280;22004;49.120;-0.200;2023-03-13T13:30:42;99420.38;;;16.80;51.05
35910;BME280;22004;49.120;-0.200;2023-03-13T13:37:40;99402.03;;;16.65;48.97
35910;BME280;22004;49.120;-0.200;2023-03-13T13:40:17;99388.69;;;16.37;49.77
35910;BME280;22004;49.120;-0.200;2023-03-13T13:42:55;99378.59;;;16.54;51.55
35910;BME280;22004;49.120;-0.200;2023-03-13T13:56:35;99361.41;;;16.21;49.23
35910;BME280;22004;49.120;-0.200;2023-03-13T14:01:46;99382.19;;;16.38;47.97
35910;BME280;22004;49.120;-0.200;2023-03-13T14:04:26;99375.44;;;16.40;46.83
35910;BME280;22004;49.120;-0.200;2023-03-13T14:06:52;99361.22;;;16.28;47.69
35910;BME280;22004;49.120;-0.200;2023-03-13T14:09:37;99355.03;;;16.33;46.19
35910;BME280;22004;49.120;-0.200;2023-03-13T14:12:27;99353.22;;;16.16;47.58
35910;BME280;22004;49.120;-0.200;2023-03-13T14:15:16;99338.41;;;16.02;48.20
35910;BME280;22004;49.120;-0.200;2023-03-13T14:17:49;99333.88;;;16.08;47.21
35910;BME280;22004;49.120;-0.200;2023-03-13T14:20:34;99324.53;;;16.20;47.74
35910;BME280;22004;49.120;-0.200;2023-03-13T14:23:06;99334.50;;;16.15;46.48
35910;BME280;22004;49.120;-0.200;2023-03-13T14:25:49;99335.56;;;16.14;46.81
35910;BME280;22004;49.120;-0.200;2023-03-13T14:28:26;99322.03;;;16.14;48.40
35910;BME280;22004;49.120;-0.200;2023-03-13T14:30:56;99326.44;;;16.20;46.01
35910;BME280;22004;49.120;-0.200;2023-03-13T14:33:22;99325.38;;;15.99;47.77
35910;BME280;22004;49.120;-0.200;2023-03-13T14:35:49;99322.91;;;15.97;48.56
35910;BME280;22004;49.120;-0.200;2023-03-13T14:38:25;99330.84;;;16.04;47.28
35910;BME280;22004;49.120;-0.200;2023-03-13T14:40:53;99323.28;;;15.84;48.67
35910;BME280;22004;49.120;-0.200;2023-03-13T14:43:39;99313.28;;;16.07;48.36